ADL weather

Adelaide International Airport
Adelaide, South Australia, Australia

Public forecast

Using degrees Celsius for public forecast. Weather courtesy of forecast.io.

Current aviation weather report (METAR) for Adelaide International Airport

Retrieved 2019/10/21 14:30 UTC (0 seconds ago):

YPAD 211430Z 00000KT CAVOK 13/08 Q1023 NOSIG

Aviation forecast (TAF) for Adelaide International Airport

Retrieved 2019/10/21 12:00 UTC (2 hours ago):

TAF YPAD 211132Z 2112/2218 10007KT CAVOK FM211600 04006KT CAVOK FM220200 23010KT CAVOK FM221000 13006KT CAVOK FM221600 05006KT CAVOK